Time;durP1;ratioP1;P1;durP2;ratioP2;P2;SDS_P1;SDS_P2;PMS_P1;PMS_P2;Temp;Humidity;BMP_temperature;BMP_pressure;BME280_temperature;BME280_humidity;BME280_pressure;Samples;Min_cycle;Max_cycle;Signal;HPM_P1;HPM_P2
2022/04/07 00:00:47;;;;;;;11.07;3.58;;;;;;;8.42;100.00;98928.16;6274978;28;20045;-76
2022/04/07 00:03:48;;;;;;;5.72;3.47;;;;;;;8.38;100.00;98924.09;6275785;28;20072;-76
2022/04/07 00:06:49;;;;;;;7.10;3.28;;;;;;;8.34;100.00;98906.91;6275546;28;20045;-76
2022/04/07 00:09:51;;;;;;;5.20;3.15;;;;;;;8.31;100.00;98907.13;6275460;28;20056;-76
2022/04/07 00:12:53;;;;;;;5.82;3.10;;;;;;;8.32;100.00;98904.44;6275079;28;20045;-76
2022/04/07 00:15:56;;;;;;;4.40;3.13;;;;;;;8.31;100.00;98900.16;6275251;28;20048;-76
2022/04/07 00:18:57;;;;;;;8.52;2.90;;;;;;;8.24;100.00;98879.75;6275178;28;20045;-76
2022/04/07 00:21:59;;;;;;;4.82;3.20;;;;;;;8.21;100.00;98864.28;6274343;28;20045;-76
2022/04/07 00:25:00;;;;;;;5.05;2.95;;;;;;;8.21;100.00;98862.50;6275112;28;20060;-76
2022/04/07 00:28:03;;;;;;;5.90;3.00;;;;;;;8.21;100.00;98856.44;6274996;28;20052;-76
2022/04/07 00:31:05;;;;;;;4.30;2.65;;;;;;;8.19;100.00;98859.16;6275551;28;20051;-76
2022/04/07 00:34:07;;;;;;;7.97;2.80;;;;;;;8.19;100.00;98861.78;6289634;28;20044;-76
2022/04/07 00:37:08;;;;;;;6.03;3.70;;;;;;;8.28;100.00;98863.72;6289375;28;20040;-76
2022/04/07 00:40:11;;;;;;;5.60;3.03;;;;;;;8.36;100.00;98855.31;6289087;28;20075;-76
2022/04/07 00:46:42;;;;;;;5.22;3.30;;;;;;;8.39;100.00;98840.22;6318061;27;20358;-75
2022/04/07 00:49:43;;;;;;;7.32;3.40;;;;;;;8.42;100.00;98828.69;6287965;28;20060;-76
2022/04/07 00:52:48;;;;;;;7.65;3.83;;;;;;;8.37;100.00;98829.06;6267988;28;20056;-76
2022/04/07 00:55:50;;;;;;;4.90;2.95;;;;;;;8.35;100.00;98817.81;6268213;28;20397;-76
2022/04/07 00:58:53;;;;;;;4.53;3.42;;;;;;;8.39;100.00;98819.28;6268255;28;20053;-76
2022/04/07 01:01:55;;;;;;;7.82;3.00;;;;;;;8.48;100.00;98815.16;6267549;28;20134;-76
2022/04/07 01:04:57;;;;;;;5.97;3.10;;;;;;;8.54;100.00;98799.00;6268077;28;20049;-76
2022/04/07 01:07:58;;;;;;;3.97;2.35;;;;;;;8.59;100.00;98794.22;6267778;28;20045;-76
2022/04/07 01:11:00;;;;;;;4.80;3.10;;;;;;;8.58;100.00;98789.09;6283944;28;20416;-75
2022/04/07 01:14:01;;;;;;;4.80;3.20;;;;;;;8.58;100.00;98786.47;6267702;28;20665;-76
2022/04/07 01:17:05;;;;;;;6.13;2.88;;;;;;;8.60;100.00;98788.03;6267960;28;20049;-75
2022/04/07 01:20:07;;;;;;;6.03;3.53;;;;;;;8.60;100.00;98780.19;6267123;28;20115;-75
2022/04/07 01:23:09;;;;;;;6.20;3.13;;;;;;;8.53;100.00;98786.00;6267439;28;20056;-76
2022/04/07 01:26:12;;;;;;;4.43;2.30;;;;;;;8.44;100.00;98771.81;6267456;28;20071;-76
2022/04/07 01:29:16;;;;;;;4.30;2.60;;;;;;;8.43;100.00;98759.69;6273778;28;20409;-76
2022/04/07 01:32:22;;;;;;;4.78;2.38;;;;;;;8.36;100.00;98748.88;6291192;28;20071;-75
2022/04/07 01:35:24;;;;;;;2.78;2.05;;;;;;;8.33;100.00;98748.25;6283634;28;20484;-75
2022/04/07 01:38:26;;;;;;;5.20;2.65;;;;;;;8.28;100.00;98743.34;6267441;28;20085;-76
2022/04/07 01:41:29;;;;;;;3.95;2.38;;;;;;;8.26;100.00;98740.00;6289702;28;20056;-75
2022/04/07 01:44:33;;;;;;;4.57;2.90;;;;;;;8.22;100.00;98720.28;6267150;28;20048;-76
2022/04/07 01:47:36;;;;;;;3.70;2.85;;;;;;;8.24;100.00;98717.53;6267057;28;20079;-76
2022/04/07 01:50:39;;;;;;;3.80;2.28;;;;;;;8.21;100.00;98715.13;6266307;28;20053;-75
2022/04/07 01:53:41;;;;;;;5.47;2.30;;;;;;;8.27;100.00;98710.28;6287472;28;20134;-76
2022/04/07 01:56:44;;;;;;;2.90;2.13;;;;;;;8.24;100.00;98705.28;6257808;28;20056;-76
2022/04/07 01:59:46;;;;;;;4.75;3.00;;;;;;;8.27;100.00;98705.06;6250130;28;20054;-76
2022/04/07 02:02:48;;;;;;;3.67;2.42;;;;;;;8.24;100.00;98700.03;6250102;28;20143;-76
2022/04/07 02:05:49;;;;;;;3.78;2.65;;;;;;;8.24;100.00;98694.81;6250281;28;20041;-76
2022/04/07 02:08:51;;;;;;;3.30;2.17;;;;;;;8.21;100.00;98679.34;6250253;28;20080;-76
2022/04/07 02:11:53;;;;;;;4.28;2.55;;;;;;;8.24;100.00;98678.28;6249502;28;20061;-75
2022/04/07 02:14:55;;;;;;;6.00;2.28;;;;;;;8.24;100.00;98667.81;6249880;28;20398;-76
2022/04/07 02:17:56;;;;;;;5.03;2.30;;;;;;;8.21;100.00;98670.66;6266302;28;20052;-75
2022/04/07 02:20:58;;;;;;;2.80;2.13;;;;;;;8.22;100.00;98665.34;6252052;28;20060;-76
2022/04/07 02:23:59;;;;;;;3.85;2.17;;;;;;;8.22;100.00;98662.72;6249837;28;20053;-75
2022/04/07 02:27:02;;;;;;;2.13;1.85;;;;;;;8.24;100.00;98654.72;6249674;28;20049;-76
2022/04/07 02:30:05;;;;;;;2.85;1.67;;;;;;;8.22;100.00;98641.78;6249254;28;20064;-76
2022/04/07 02:33:07;;;;;;;2.80;1.88;;;;;;;8.27;100.00;98636.19;6271813;28;20049;-76
2022/04/07 02:36:10;;;;;;;2.78;1.85;;;;;;;8.31;100.00;98634.97;6274148;28;20053;-75
2022/04/07 02:39:11;;;;;;;2.67;1.83;;;;;;;8.35;100.00;98631.16;6260290;28;20045;-75
2022/04/07 02:42:14;;;;;;;2.80;1.52;;;;;;;8.41;100.00;98616.81;6257825;28;20430;-75
2022/04/07 02:45:15;;;;;;;2.00;1.33;;;;;;;8.42;100.00;98616.69;6269921;28;20048;-75
2022/04/07 02:48:17;;;;;;;2.03;1.67;;;;;;;8.43;100.00;98609.69;6249506;28;20049;-76
2022/04/07 02:51:18;;;;;;;3.03;1.80;;;;;;;8.40;100.00;98592.41;6248580;28;20059;-75
2022/04/07 02:54:19;;;;;;;3.28;1.88;;;;;;;8.45;100.00;98590.28;6248976;28;20050;-76
2022/04/07 02:57:30;;;;;;;3.35;1.70;;;;;;;8.45;100.00;98592.03;6252935;28;20055;-75
2022/04/07 03:00:32;;;;;;;1.60;1.42;;;;;;;8.47;100.00;98585.75;6272878;28;20121;-75
2022/04/07 03:03:33;;;;;;;3.85;2.00;;;;;;;8.50;100.00;98580.28;6273688;28;20088;-76
2022/04/07 03:06:34;;;;;;;2.70;2.40;;;;;;;8.53;100.00;98581.81;6273379;28;20500;-76
2022/04/07 03:09:36;;;;;;;2.35;1.95;;;;;;;8.56;100.00;98578.97;6272463;28;20048;-76
2022/04/07 03:12:38;;;;;;;2.40;1.85;;;;;;;8.56;100.00;98560.63;6272883;28;20049;-76
2022/04/07 03:15:40;;;;;;;2.63;2.22;;;;;;;8.57;100.00;98557.88;6273153;28;20048;-76
2022/04/07 03:18:41;;;;;;;3.28;2.00;;;;;;;8.54;100.00;98552.91;6273075;28;20060;-75
2022/04/07 03:21:42;;;;;;;2.38;1.92;;;;;;;8.56;100.00;98548.38;6269108;28;20068;-75
2022/04/07 03:24:44;;;;;;;4.15;2.05;;;;;;;8.57;100.00;98550.03;6248261;28;20054;-75
2022/04/07 03:27:46;;;;;;;2.78;2.03;;;;;;;8.64;100.00;98538.13;6248119;28;20056;-75
2022/04/07 03:30:48;;;;;;;3.55;1.80;;;;;;;8.65;100.00;98538.94;6247430;28;20493;-75
2022/04/07 03:33:49;;;;;;;3.08;1.83;;;;;;;8.62;100.00;98529.53;6247897;28;20076;-75
2022/04/07 03:36:50;;;;;;;3.20;2.08;;;;;;;8.64;100.00;98551.22;6247981;28;20053;-74
2022/04/07 03:39:52;;;;;;;2.90;1.95;;;;;;;8.66;100.00;98524.91;6247561;28;20441;-75
2022/04/07 03:42:54;;;;;;;1.85;1.70;;;;;;;8.68;100.00;98532.66;6247496;28;20049;-75
2022/04/07 03:45:56;;;;;;;2.65;2.08;;;;;;;8.68;100.00;98528.22;6247536;28;20050;-76
2022/04/07 03:48:57;;;;;;;2.33;2.03;;;;;;;8.66;100.00;98519.66;6258359;28;20060;-75
2022/04/07 03:51:58;;;;;;;2.95;2.03;;;;;;;8.59;100.00;98521.94;6271682;28;20140;-74
2022/04/07 03:55:00;;;;;;;5.68;2.53;;;;;;;8.61;100.00;98520.03;6269030;28;20041;-74
2022/04/07 03:58:02;;;;;;;4.28;2.28;;;;;;;8.54;100.00;98507.56;6247397;28;20053;-75
2022/04/07 04:01:04;;;;;;;3.03;2.33;;;;;;;8.46;100.00;98509.97;6246723;28;20061;-75
2022/04/07 04:04:06;;;;;;;2.53;2.03;;;;;;;8.47;100.00;98490.69;6255205;28;20440;-75
2022/04/07 04:07:07;;;;;;;2.42;1.73;;;;;;;8.45;100.00;98490.84;6265889;28;20492;-75
2022/04/07 04:10:09;;;;;;;2.10;1.77;;;;;;;8.43;100.00;98477.03;6266034;28;20049;-75
2022/04/07 04:13:12;;;;;;;2.05;1.58;;;;;;;8.45;100.00;98487.34;6266011;28;20056;-75
2022/04/07 04:16:15;;;;;;;2.85;1.92;;;;;;;8.49;100.00;98473.91;6272056;28;20056;-75
2022/04/07 04:19:16;;;;;;;4.03;2.00;;;;;;;8.55;100.00;98465.56;6271735;28;20084;-75
2022/04/07 04:22:17;;;;;;;2.30;1.67;;;;;;;8.58;100.00;98467.09;6271595;28;20049;-75
2022/04/07 04:25:19;;;;;;;4.85;1.50;;;;;;;8.60;100.00;98457.34;6271530;28;20475;-75
2022/04/07 04:28:21;;;;;;;1.90;1.63;;;;;;;8.61;100.00;98449.34;6272013;28;20059;-75
2022/04/07 04:31:24;;;;;;;4.47;1.77;;;;;;;8.59;100.00;98448.66;6270134;28;20249;-76
2022/04/07 04:34:26;;;;;;;1.85;1.42;;;;;;;8.54;100.00;98442.97;6270566;28;20475;-76
2022/04/07 04:37:27;;;;;;;2.38;1.65;;;;;;;8.54;100.00;98440.34;6247128;28;20045;-75
2022/04/07 04:40:28;;;;;;;3.33;1.65;;;;;;;8.47;100.00;98433.13;6265502;28;20045;-76
2022/04/07 04:43:31;;;;;;;4.65;1.48;;;;;;;8.43;100.00;98427.28;6246983;28;20049;-75
2022/04/07 04:46:32;;;;;;;3.05;1.35;;;;;;;8.39;100.00;98429.31;6261904;28;20049;-75
2022/04/07 04:49:34;;;;;;;2.95;1.25;;;;;;;8.42;100.00;98419.56;6266462;28;20048;-76
2022/04/07 04:52:35;;;;;;;3.58;1.40;;;;;;;8.46;100.00;98408.72;6266686;28;20523;-75
2022/04/07 04:55:37;;;;;;;4.07;0.90;;;;;;;8.45;100.00;98403.59;6252916;28;20056;-76
2022/04/07 04:58:39;;;;;;;5.43;1.13;;;;;;;8.45;100.00;98394.00;6253377;28;20053;-76
2022/04/07 05:01:41;;;;;;;1.55;1.23;;;;;;;8.45;100.00;98383.53;6259698;28;20492;-75
2022/04/07 05:04:42;;;;;;;5.63;1.13;;;;;;;8.50;100.00;98378.72;6246713;28;20049;-75
2022/04/07 05:07:43;;;;;;;3.20;0.90;;;;;;;8.53;100.00;98381.06;6246437;28;20041;-76
2022/04/07 05:10:45;;;;;;;1.65;0.98;;;;;;;8.56;100.00;98372.97;6245866;28;20049;-76
2022/04/07 05:13:48;;;;;;;0.82;0.63;;;;;;;8.57;100.00;98368.56;6254576;28;20068;-76
2022/04/07 05:16:49;;;;;;;1.75;1.02;;;;;;;8.64;100.00;98362.69;6266879;28;20049;-76
2022/04/07 05:19:51;;;;;;;1.00;0.90;;;;;;;8.62;100.00;98342.84;6270521;28;20048;-76
2022/04/07 05:22:52;;;;;;;2.42;0.93;;;;;;;8.64;100.00;98352.22;6270702;28;20049;-76
2022/04/07 05:25:53;;;;;;;3.70;0.75;;;;;;;8.61;100.00;98334.16;6270956;28;20053;-75
2022/04/07 05:28:56;;;;;;;1.10;1.00;;;;;;;8.61;100.00;98333.31;6271183;28;20045;-76
2022/04/07 05:31:57;;;;;;;2.20;1.00;;;;;;;8.63;100.00;98324.41;6272339;28;20067;-75
2022/04/07 05:34:59;;;;;;;0.60;0.60;;;;;;;8.66;100.00;98330.31;6275510;28;20053;-76
2022/04/07 05:38:02;;;;;;;3.00;0.93;;;;;;;8.64;100.00;98310.34;6284813;28;20056;-76
2022/04/07 05:41:03;;;;;;;6.07;1.17;;;;;;;8.70;100.00;98305.53;6290948;28;20065;-75
2022/04/07 05:44:06;;;;;;;1.88;0.80;;;;;;;8.69;100.00;98306.50;6295079;28;20044;-75
2022/04/07 05:47:08;;;;;;;0.80;0.70;;;;;;;8.73;100.00;98295.66;6279449;28;20052;-76
2022/04/07 05:50:12;;;;;;;5.07;1.17;;;;;;;8.71;100.00;98284.44;6275153;28;20053;-75
2022/04/07 05:53:13;;;;;;;0.73;0.73;;;;;;;8.82;100.00;98280.94;6274810;28;20053;-75
2022/04/07 05:56:14;;;;;;;1.67;0.98;;;;;;;8.85;100.00;98272.78;6275438;28;20056;-76
2022/04/07 05:59:17;;;;;;;0.77;0.70;;;;;;;8.85;100.00;98264.94;6274996;28;20048;-75
2022/04/07 06:02:18;;;;;;;2.28;0.98;;;;;;;8.88;100.00;98262.06;6274645;28;20060;-76
2022/04/07 06:05:20;;;;;;;0.50;0.50;;;;;;;8.92;100.00;98255.59;6275041;28;20242;-75
2022/04/07 06:08:21;;;;;;;1.48;0.90;;;;;;;8.96;100.00;98243.91;6275124;28;20053;-75
2022/04/07 06:11:23;;;;;;;1.52;0.85;;;;;;;8.98;100.00;98254.25;6274247;28;20050;-75
2022/04/07 06:14:25;;;;;;;2.42;1.35;;;;;;;8.96;100.00;98237.84;6274600;28;20451;-75
2022/04/07 06:17:34;;;;;;;0.70;0.70;;;;;;;8.95;100.00;98237.00;6274989;28;20049;-75
2022/04/07 06:20:36;;;;;;;2.50;0.93;;;;;;;8.93;100.00;98225.81;6274912;28;20052;-75
2022/04/07 06:23:37;;;;;;;2.17;0.80;;;;;;;8.95;100.00;98200.34;6275387;28;20055;-75
2022/04/07 06:26:38;;;;;;;1.13;0.90;;;;;;;9.02;100.00;98209.31;6274976;28;20041;-75
2022/04/07 06:29:41;;;;;;;0.65;0.65;;;;;;;9.11;100.00;98210.28;6274401;28;20057;-75
2022/04/07 06:32:44;;;;;;;0.88;0.50;;;;;;;9.14;100.00;98195.13;6273299;28;20056;-75
2022/04/07 06:35:45;;;;;;;3.80;0.68;;;;;;;9.26;100.00;98176.66;6270615;28;20037;-75
2022/04/07 06:38:46;;;;;;;0.82;0.60;;;;;;;9.24;100.00;98161.09;6265983;28;20045;-75
2022/04/07 06:41:47;;;;;;;0.60;0.60;;;;;;;9.23;100.00;98159.44;6248847;28;20045;-75
2022/04/07 06:44:51;;;;;;;1.35;0.60;;;;;;;9.29;100.00;98142.31;6269991;28;20045;-75
2022/04/07 06:47:52;;;;;;;5.68;1.38;;;;;;;9.36;100.00;98122.47;6265134;28;20048;-75
2022/04/07 06:50:54;;;;;;;5.50;0.57;;;;;;;9.40;100.00;98132.53;6252303;28;20057;-75
2022/04/07 06:53:55;;;;;;;0.40;0.40;;;;;;;9.42;100.00;98121.91;6265301;28;20049;-75
2022/04/07 06:56:56;;;;;;;1.40;0.50;;;;;;;9.41;100.00;98112.41;6249367;28;20049;-74
2022/04/07 06:59:59;;;;;;;5.63;0.95;;;;;;;9.49;100.00;98095.94;6248617;28;20049;-75
2022/04/07 07:03:02;;;;;;;3.85;0.52;;;;;;;9.52;100.00;98100.91;6262080;28;20060;-75
2022/04/07 07:06:04;;;;;;;1.17;0.47;;;;;;;9.50;100.00;98103.69;6251157;28;20045;-75
2022/04/07 07:09:05;;;;;;;0.43;0.43;;;;;;;9.59;100.00;98091.53;6260589;28;20497;-75
2022/04/07 07:12:07;;;;;;;0.98;0.38;;;;;;;9.52;100.00;98087.81;6272444;28;20048;-75
2022/04/07 07:15:10;;;;;;;0.60;0.60;;;;;;;9.50;100.00;98074.84;6273229;28;20055;-75
2022/04/07 07:18:11;;;;;;;0.82;0.60;;;;;;;9.49;100.00;98062.69;6273496;28;20045;-75
2022/04/07 07:21:12;;;;;;;0.40;0.40;;;;;;;9.45;100.00;98057.88;6272546;28;20053;-75
2022/04/07 07:24:14;;;;;;;1.17;1.10;;;;;;;9.20;100.00;98048.81;6273257;28;20055;-75
2022/04/07 07:27:15;;;;;;;2.40;0.90;;;;;;;8.95;100.00;98035.34;6268619;28;20052;-76
2022/04/07 07:30:19;;;;;;;1.10;0.50;;;;;;;8.77;100.00;98023.91;6270860;28;20053;-76
2022/04/07 07:33:20;;;;;;;0.65;0.57;;;;;;;8.63;100.00;97997.16;6258661;28;20049;-77
2022/04/07 07:36:21;;;;;;;1.65;0.70;;;;;;;8.54;100.00;98011.06;6273048;28;20052;-77
2022/04/07 07:39:23;;;;;;;3.92;0.68;;;;;;;8.55;100.00;98006.66;6272819;28;20049;-77
2022/04/07 07:42:24;;;;;;;1.27;0.70;;;;;;;8.55;100.00;98009.28;6272215;28;20053;-77
2022/04/07 07:45:29;;;;;;;0.43;0.40;;;;;;;8.57;100.00;97979.34;6272643;28;20053;-77
2022/04/07 07:48:30;;;;;;;0.47;0.47;;;;;;;8.61;100.00;97969.44;6274031;28;20128;-77
2022/04/07 07:51:32;;;;;;;1.10;0.73;;;;;;;8.61;100.00;97954.56;6272466;28;20045;-78
2022/04/07 07:54:33;;;;;;;0.90;0.65;;;;;;;8.63;100.00;97954.44;6273261;28;20053;-78
2022/04/07 07:57:34;;;;;;;0.80;0.65;;;;;;;8.64;100.00;97959.53;6273819;28;20049;-76
2022/04/07 08:00:37;;;;;;;1.15;0.60;;;;;;;8.68;100.00;97952.25;6259096;28;20053;-78
2022/04/07 08:03:39;;;;;;;1.58;0.60;;;;;;;8.71;100.00;97959.78;6248125;28;20049;-76
2022/04/07 08:06:40;;;;;;;0.52;0.40;;;;;;;8.67;100.00;97945.31;6247400;28;20052;-76
2022/04/07 08:09:41;;;;;;;0.90;0.60;;;;;;;8.64;100.00;97954.31;6247628;28;20049;-77
2022/04/07 08:12:43;;;;;;;0.40;0.40;;;;;;;8.55;100.00;97946.44;6247044;28;20053;-76
2022/04/07 08:15:46;;;;;;;0.22;0.22;;;;;;;8.49;100.00;97945.19;6247754;28;20050;-77
2022/04/07 08:18:47;;;;;;;4.25;0.85;;;;;;;8.47;100.00;97952.38;6247166;28;20084;-76
2022/04/07 08:21:48;;;;;;;0.38;0.38;;;;;;;8.36;100.00;97961.19;6246704;28;20049;-77
2022/04/07 08:24:50;;;;;;;1.42;0.60;;;;;;;8.31;100.00;97949.41;6246895;28;20073;-76
2022/04/07 08:27:51;;;;;;;0.85;0.60;;;;;;;8.22;100.00;97951.09;6247042;28;20441;-77
2022/04/07 08:30:54;;;;;;;0.47;0.47;;;;;;;8.13;100.00;97960.56;6246024;28;20459;-77
2022/04/07 08:33:55;;;;;;;0.40;0.40;;;;;;;8.04;100.00;97950.06;6253706;28;20060;-77
2022/04/07 08:36:57;;;;;;;0.25;0.25;;;;;;;7.97;100.00;97925.44;6271773;28;20435;-77
2022/04/07 08:40:04;;;;;;;0.30;0.30;;;;;;;7.95;100.00;97917.72;6272860;28;20053;-79
2022/04/07 08:43:08;;;;;;;0.63;0.43;;;;;;;7.89;100.00;97919.06;6272913;28;20040;-77
2022/04/07 08:46:12;;;;;;;1.35;0.50;;;;;;;7.89;100.00;97884.25;6273254;28;20135;-77
2022/04/07 08:49:16;;;;;;;1.27;0.50;;;;;;;7.85;100.00;97894.16;6273741;28;20045;-78
2022/04/07 08:52:18;;;;;;;0.50;0.43;;;;;;;7.86;100.00;97908.09;6271967;28;20041;-77
2022/04/07 08:55:19;;;;;;;1.00;0.50;;;;;;;7.85;100.00;97904.63;6273881;28;20060;-78
2022/04/07 08:58:20;;;;;;;0.50;0.50;;;;;;;7.87;100.00;97913.16;6273134;28;20056;-78
2022/04/07 09:01:23;;;;;;;0.55;0.52;;;;;;;7.86;100.00;97921.97;6272681;28;20045;-78
2022/04/07 09:04:24;;;;;;;0.40;0.40;;;;;;;7.81;100.00;97950.31;6273355;28;20053;-78
2022/04/07 09:07:31;;;;;;;0.45;0.45;;;;;;;7.33;100.00;97995.34;6276130;28;20067;-78
2022/04/07 09:10:35;;;;;;;0.10;0.10;;;;;;;5.90;100.00;97971.34;6268405;28;20501;-80
2022/04/07 09:13:39;;;;;;;0.10;0.10;;;;;;;5.38;100.00;97977.19;6253170;28;20053;-80
2022/04/07 09:16:43;;;;;;;0.00;0.00;;;;;;;5.03;100.00;97965.06;6256690;28;20077;-80
2022/04/07 09:19:50;;;;;;;0.43;0.20;;;;;;;4.87;100.00;97962.78;6268472;28;20052;-80
2022/04/07 09:22:59;;;;;;;0.00;0.00;;;;;;;4.72;100.00;97964.75;6277885;28;20053;-78
2022/04/07 09:26:00;;;;;;;;;;;;;;;4.80;100.00;97964.19;6272301;28;20076;-78
2022/04/07 09:29:08;;;;;;;0.40;0.17;;;;;;;4.66;100.00;97969.59;6270122;28;19927;-77
2022/04/07 09:32:19;;;;;;;0.00;0.00;;;;;;;4.70;100.00;97966.63;6270935;28;20634;-79
2022/04/07 09:35:21;;;;;;;0.00;0.00;;;;;;;4.61;100.00;97958.69;6271592;28;20056;-79
2022/04/07 09:38:24;;;;;;;0.20;0.20;;;;;;;4.50;100.00;97949.09;6277081;28;20056;-80
2022/04/07 09:41:28;;;;;;;0.10;0.10;;;;;;;4.56;100.00;97926.06;6266798;28;20045;-79
2022/04/07 09:44:37;;;;;;;0.25;0.17;;;;;;;4.57;100.00;97922.50;6252290;28;20053;-78
2022/04/07 09:47:43;;;;;;;0.10;0.10;;;;;;;4.66;100.00;97921.00;6252430;28;20052;-79
2022/04/07 09:51:02;;;;;;;0.17;0.17;;;;;;;4.63;100.00;97917.78;6251658;28;20049;-78
2022/04/07 09:54:09;;;;;;;0.20;0.20;;;;;;;4.65;100.00;97911.53;6267065;28;20090;-78
2022/04/07 09:57:11;;;;;;;0.10;0.10;;;;;;;4.50;100.00;97910.91;6253672;28;20045;-78
2022/04/07 10:00:14;;;;;;;2.47;0.20;;;;;;;4.50;100.00;97917.88;6258888;28;20056;-79
2022/04/07 10:03:17;;;;;;;0.17;0.17;;;;;;;4.45;100.00;97919.97;6275985;28;20052;-78
2022/04/07 10:06:19;;;;;;;0.30;0.20;;;;;;;4.53;100.00;97928.88;6276902;28;20052;-78
2022/04/07 10:09:21;;;;;;;0.43;0.43;;;;;;;4.52;100.00;97932.41;6277300;28;20056;-77
2022/04/07 10:12:23;;;;;;;0.30;0.30;;;;;;;4.43;100.00;97933.09;6276538;28;20049;-79
2022/04/07 10:15:25;;;;;;;0.10;0.10;;;;;;;4.43;100.00;97940.06;6276246;28;20048;-79
2022/04/07 10:18:32;;;;;;;0.15;0.15;;;;;;;4.32;100.00;97957.28;6276221;28;20488;-79
2022/04/07 10:21:42;;;;;;;0.00;0.00;;;;;;;4.14;100.00;97930.03;6273701;28;20048;-78
2022/04/07 10:24:47;;;;;;;7.45;0.30;;;;;;;4.16;100.00;97935.09;6251966;28;20061;-78
2022/04/07 10:27:50;;;;;;;0.13;0.10;;;;;;;4.15;100.00;97933.47;6251781;28;20049;-78
2022/04/07 10:30:54;;;;;;;0.30;0.30;;;;;;;4.13;100.00;97936.16;6253791;28;20056;-79
2022/04/07 10:34:07;;;;;;;0.28;0.28;;;;;;;4.08;100.00;97939.06;6272899;28;20053;-78
2022/04/07 10:37:09;;;;;;;0.43;0.17;;;;;;;4.11;100.00;97934.63;6268177;28;20561;-80
2022/04/07 10:40:33;;;;;;;0.10;0.10;;;;;;;4.00;100.00;97923.22;6268210;28;20049;-79
2022/04/07 10:43:38;;;;;;;0.15;0.15;;;;;;;3.96;100.00;97903.59;6261591;28;20135;-79
2022/04/07 10:46:39;;;;;;;4.20;0.20;;;;;;;3.91;100.00;97865.91;6258436;28;20045;-79
2022/04/07 10:49:48;;;;;;;0.00;0.00;;;;;;;3.92;100.00;97862.38;6273534;28;20068;-79
2022/04/07 10:52:49;;;;;;;0.20;0.20;;;;;;;4.03;100.00;97858.03;6274401;28;20049;-79
2022/04/07 10:55:55;;;;;;;1.30;0.40;;;;;;;4.20;100.00;97840.38;6276455;28;20071;-78
2022/04/07 10:59:12;;;;;;;0.32;0.32;;;;;;;4.21;100.00;97834.25;6275027;28;20052;-81
2022/04/07 11:02:15;;;;;;;0.30;0.10;;;;;;;4.50;100.00;97827.69;6271189;28;20049;-79
2022/04/07 11:05:25;;;;;;;0.10;0.10;;;;;;;4.80;100.00;97806.31;6275162;28;20106;-80
2022/04/07 11:08:30;;;;;;;0.00;0.00;;;;;;;5.01;100.00;97790.00;6274907;28;20041;-80
2022/04/07 11:11:52;;;;;;;0.25;0.17;;;;;;;5.07;100.00;97802.53;6274205;28;20041;-79
2022/04/07 11:15:12;;;;;;;0.95;0.50;;;;;;;5.17;100.00;97807.84;6266231;28;20057;-76
2022/04/07 11:18:33;;;;;;;0.40;0.40;;;;;;;5.42;100.00;97801.53;6275563;28;20045;-79
2022/04/07 11:21:46;;;;;;;0.10;0.10;;;;;;;5.87;100.00;97789.19;6274245;28;20049;-77
2022/04/07 11:24:53;;;;;;;0.28;0.28;;;;;;;6.17;100.00;97798.88;6276232;28;20052;-78
2022/04/07 11:28:13;;;;;;;0.22;0.20;;;;;;;6.20;100.00;97797.81;6275880;28;20049;-77
2022/04/07 11:31:45;;;;;;;1.17;0.52;;;;;;;6.38;100.00;97800.69;6273401;28;20136;-78
2022/04/07 11:34:51;;;;;;;0.30;0.20;;;;;;;6.56;100.00;97799.97;6275375;28;20049;-79
2022/04/07 11:37:54;;;;;;;0.20;0.20;;;;;;;6.88;100.00;97808.63;6274452;28;20052;-78
2022/04/07 11:40:59;;;;;;;0.45;0.38;;;;;;;6.95;100.00;97809.75;6274499;28;20058;-78
2022/04/07 11:44:09;;;;;;;0.20;0.20;;;;;;;6.86;100.00;97827.88;6274096;28;20045;-82
2022/04/07 11:47:21;;;;;;;;;;;;;;;6.90;100.00;97830.19;6275003;28;20044;-78
2022/04/07 11:50:22;;;;;;;0.25;0.25;;;;;;;7.00;100.00;97821.47;6273893;28;19921;-81
2022/04/07 11:53:28;;;;;;;0.50;0.50;;;;;;;6.95;100.00;97828.00;6274084;28;20142;-80
2022/04/07 11:56:31;;;;;;;0.30;0.30;;;;;;;7.16;100.00;97820.97;6274750;28;20048;-78
2022/04/07 11:59:35;;;;;;;0.65;0.40;;;;;;;7.47;100.00;97818.31;6273428;28;20416;-79
2022/04/07 12:02:36;;;;;;;0.52;0.20;;;;;;;7.59;100.00;97815.44;6273227;28;20135;-82
2022/04/07 12:05:39;;;;;;;0.65;0.63;;;;;;;7.78;100.00;97811.19;6273103;28;20683;-78
2022/04/07 12:08:41;;;;;;;0.30;0.30;;;;;;;7.82;100.00;97809.97;6274041;28;20045;-79
2022/04/07 12:11:44;;;;;;;0.35;0.28;;;;;;;8.00;100.00;97831.84;6273334;28;20053;-77
2022/04/07 12:14:46;;;;;;;1.15;0.60;;;;;;;8.11;100.00;97809.97;6273946;28;20059;-78
2022/04/07 12:18:00;;;;;;;0.52;0.40;;;;;;;8.13;100.00;97800.19;6274569;28;20052;-77
2022/04/07 12:21:05;;;;;;;0.70;0.38;;;;;;;8.32;100.00;97797.56;6272545;28;20048;-77
2022/04/07 12:24:11;;;;;;;0.30;0.30;;;;;;;8.74;100.00;97791.13;6273557;28;20045;-82
2022/04/07 12:27:26;;;;;;;6.35;0.57;;;;;;;9.15;100.00;97795.94;6273873;28;20071;-78
2022/04/07 12:30:42;;;;;;;0.70;0.70;;;;;;;9.39;100.00;97792.75;6272357;28;20500;-77
2022/04/07 12:33:45;;;;;;;1.40;0.47;;;;;;;9.50;100.00;97791.75;6253377;28;20052;-79
2022/04/07 12:36:46;;;;;;;0.45;0.45;;;;;;;9.59;100.00;97790.03;6284219;28;20049;-77
2022/04/07 12:39:49;;;;;;;2.83;0.73;;;;;;;9.40;100.00;97789.19;6274095;28;20052;-77
2022/04/07 12:42:51;;;;;;;1.67;0.35;;;;;;;9.10;100.00;97777.19;6272972;28;20057;-78
2022/04/07 12:45:55;;;;;;;0.57;0.47;;;;;;;8.86;100.00;97775.13;6272565;28;20049;-77
2022/04/07 12:49:03;;;;;;;1.58;0.80;;;;;;;8.77;100.00;97783.00;6258021;28;20564;-77
2022/04/07 12:52:07;;;;;;;0.40;0.40;;;;;;;8.88;100.00;97788.06;6257111;28;20045;-76
2022/04/07 12:55:12;;;;;;;0.47;0.47;;;;;;;9.24;100.00;97836.16;6267926;28;20053;-77
2022/04/07 12:58:27;;;;;;;4.57;0.52;;;;;;;9.50;100.00;97788.31;6272685;28;20052;-81
2022/04/07 13:01:29;;;;;;;1.15;0.45;;;;;;;9.72;100.00;97789.66;6272071;28;20049;-80
2022/04/07 13:04:47;;;;;;;0.30;0.30;;;;;;;9.87;100.00;97760.13;6272231;28;20069;-79
2022/04/07 13:07:49;;;;;;;2.78;0.73;;;;;;;10.04;100.00;97768.16;6268876;28;20047;-78
2022/04/07 13:10:52;;;;;;;1.98;0.40;;;;;;;10.11;100.00;97777.06;6246749;28;20183;-77
2022/04/07 13:13:53;;;;;;;0.90;0.55;;;;;;;10.11;100.00;97772.63;6268115;28;20049;-78
2022/04/07 13:16:54;;;;;;;1.00;0.50;;;;;;;10.18;100.00;97767.59;6271738;28;20137;-77
2022/04/07 13:19:56;;;;;;;0.63;0.38;;;;;;;10.38;100.00;97757.75;6272541;28;20056;-78
2022/04/07 13:22:57;;;;;;;2.08;0.70;;;;;;;10.66;100.00;97768.91;6270892;28;20052;-78
2022/04/07 13:26:00;;;;;;;1.58;0.40;;;;;;;10.58;100.00;97763.63;6272295;28;20157;-76
2022/04/07 13:29:01;;;;;;;0.68;0.32;;;;;;;10.44;100.00;97759.75;6271934;28;20046;-79
2022/04/07 13:32:03;;;;;;;0.45;0.40;;;;;;;10.04;100.00;97762.91;6267755;28;20218;-76
2022/04/07 13:35:05;;;;;;;1.30;0.43;;;;;;;9.49;100.00;97776.97;6262855;28;20439;-77
2022/04/07 13:38:07;;;;;;;1.13;0.40;;;;;;;9.19;100.00;97863.75;6271504;28;20516;-77
2022/04/07 13:41:11;;;;;;;1.08;0.63;;;;;;;9.22;100.00;97811.91;6266022;28;20045;-76
2022/04/07 13:44:12;;;;;;;1.38;0.63;;;;;;;9.47;100.00;97823.47;6264255;28;20128;-76
2022/04/07 13:47:14;;;;;;;0.45;0.22;;;;;;;9.61;100.00;97825.59;6268539;28;20060;-77
2022/04/07 13:50:15;;;;;;;2.85;0.68;;;;;;;9.52;100.00;97829.09;6270081;28;20519;-76
2022/04/07 13:53:17;;;;;;;1.15;0.22;;;;;;;9.73;100.00;97799.19;6273397;28;20049;-77
2022/04/07 13:56:19;;;;;;;0.80;0.40;;;;;;;9.95;97.67;97797.88;6250772;28;20136;-75
2022/04/07 13:59:21;;;;;;;4.85;0.90;;;;;;;10.04;96.65;97779.47;6263270;28;20637;-75
2022/04/07 14:02:22;;;;;;;1.98;0.32;;;;;;;10.34;96.59;97775.63;6272739;28;20045;-76
2022/04/07 14:05:24;;;;;;;3.88;0.52;;;;;;;10.61;91.82;97787.78;6274961;28;20055;-78
2022/04/07 14:08:25;;;;;;;1.23;0.30;;;;;;;10.88;89.20;97775.44;6253877;28;20047;-75
2022/04/07 14:11:29;;;;;;;1.08;0.32;;;;;;;10.94;88.05;97766.94;6266964;28;20045;-77
2022/04/07 14:14:31;;;;;;;0.82;0.40;;;;;;;11.25;80.48;97761.13;6275055;28;20056;-77
2022/04/07 14:17:32;;;;;;;2.33;0.68;;;;;;;10.98;76.43;97778.78;6274717;28;20049;-75
2022/04/07 14:20:33;;;;;;;1.55;0.70;;;;;;;10.93;82.58;97776.63;6274048;28;20049;-76
2022/04/07 14:23:35;;;;;;;3.05;1.13;;;;;;;10.90;80.62;97769.06;6274698;28;20060;-75
2022/04/07 14:26:41;;;;;;;1.00;0.45;;;;;;;11.15;84.99;97787.56;6274574;28;20053;-76